Have a Safe July 4th! 

Flight Track Log - Related Links

Times and Time Zones

All times are in EDT time to prevent confusion due to time zone crossing. See the SWA2966 flight status page for this flight to view local times or setup timezone preferences in your user account.

Time Position Orientation Groundspeed Altitude Reporting Facility
EDT Latitude Longitude Course Direction KTS MPH feet Rate Location/Type
Sun 03:21:17 PM 37.7267 -122.2528 290° West 169 194 1,300  Level Oakland Center
Sun 03:22:18 PM 37.7475 -122.3247 290° West 248 285 4,200 2,927 Climbing Oakland Center
Sun 03:23:20 PM 37.7194 -122.3867 240° Southwest 251 289 7,300 2,860 Climbing Oakland Center
Sun 03:23:44 PM 37.6833 -122.4000 196° South 286 329 8,300 1,976 Climbing Northern Cal TRACON
Sun 03:24:45 PM 37.6000 -122.4333 198° South 315 362 10,100 2,061 Climbing Northern Cal TRACON
Sun 03:25:23 PM 37.5553 -122.4422 189° South 312 359 11,700 2,700 Climbing Oakland Center
Sun 03:26:25 PM 37.4683 -122.4561 187° South 326 375 14,600 2,927 Climbing Oakland Center
Sun 03:27:26 PM 37.4078 -122.3583 128° Southeast 361 415 17,700 3,220 Climbing Oakland Center
Sun 03:28:28 PM 37.3278 -122.2303 128° Southeast 387 445 21,200 3,220 Climbing Oakland Center
Sun 03:29:29 PM 37.2586 -122.1161 127° Southeast 407 468 24,300 2,537 Climbing Oakland Center
Sun 03:30:31 PM 37.1881 -122.0006 127° Southeast 417 480 26,400 2,032 Climbing Oakland Center
Sun 03:31:33 PM 37.1122 -121.8767 127° Southeast 445 512 28,500 2,000 Climbing Oakland Center
Sun 03:32:34 PM 37.0331 -121.7536 129° Southeast 455 524 30,500 2,049 Climbing Oakland Center
Sun 03:33:36 PM 36.9528 -121.6239 128° Southeast 469 540 32,700 2,293 Climbing Oakland Center
Sun 03:34:37 PM 36.8778 -121.4975 127° Southeast 457 526 35,200 2,049 Climbing Oakland Center
Sun 03:35:39 PM 36.7933 -121.3617 128° Southeast 452 520 36,900 1,463 Climbing Oakland Center
Sun 03:36:40 PM 36.7153 -121.2392 128° Southeast 452 520 38,200 976 Climbing Oakland Center
Sun 03:37:42 PM 36.6364 -121.1128 128° Southeast 460 529 38,900 390 Climbing Oakland Center
Sun 03:38:43 PM 36.5561 -120.9856 128° Southeast 468 539 39,000 49 Climbing Oakland Center
Sun 03:39:45 PM 36.4606 -120.8317 128° Southeast 467 537 39,000  Level Oakland Center
Sun 03:40:47 PM 36.3808 -120.7058 128° Southeast 466 536 39,000  Level Oakland Center
Sun 03:41:48 PM 36.3003 -120.5789 128° Southeast 465 535 39,000  Level Oakland Center
Sun 03:42:50 PM 36.2178 -120.4519 129° Southeast 474 545 39,000  Level Oakland Center
Sun 03:43:51 PM 36.1361 -120.3228 128° Southeast 474 545 39,000  Level Oakland Center
Sun 03:44:53 PM 36.0533 -120.1947 129° Southeast 475 547 39,000  Level Oakland Center
Sun 03:45:54 PM 35.9725 -120.0728 129° Southeast 459 528 39,000  Level Oakland Center
Sun 03:46:56 PM 35.8911 -119.9456 128° Southeast 465 535 39,000  Level Oakland Center
Sun 03:47:58 PM 35.8078 -119.8194 129° Southeast 470 541 39,000  Level Oakland Center
Sun 03:48:59 PM 35.7253 -119.6944 129° Southeast 468 539 39,000  Level Oakland Center
Sun 03:50:01 PM 35.6247 -119.5411 129° Southeast 475 547 39,000  Level Oakland Center
Sun 03:51:02 PM 35.5422 -119.4161 129° Southeast 472 543 39,000  Level Oakland Center
Sun 03:51:32 PM 35.5106 -119.3667 128° Southeast 470 541 39,000  Level Los Angeles Center
Sun 03:52:34 PM 35.4283 -119.2406 129° Southeast 471 542 39,000  Level Los Angeles Center
Sun 03:53:36 PM 35.3444 -119.1147 129° Southeast 473 544 39,000  Level Los Angeles Center
Sun 03:54:39 PM 35.2439 -118.9642 129° Southeast 475 547 39,000 -624 Level Los Angeles Center
Sun 03:55:41 PM 35.1603 -118.8394 129° Southeast 474 545 37,700 -2,032 Descending Los Angeles Center
Sun 03:56:43 PM 35.0769 -118.7172 130° Southeast 469 540 34,800 -2,903 Descending Los Angeles Center
Sun 03:57:45 PM 34.9944 -118.5953 130° Southeast 467 537 31,700 -2,758 Descending Los Angeles Center
Sun 03:58:47 PM 34.9103 -118.4731 130° Southeast 468 539 29,100 -1,872 Descending Los Angeles Center
Sun 03:59:50 PM 34.8317 -118.3561 129° Southeast 457 526 27,800 -1,392 Descending Los Angeles Center
Sun 04:00:52 PM 34.7378 -118.2208 130° Southeast 444 511 26,200 -1,887 Descending Los Angeles Center
Sun 04:01:54 PM 34.6611 -118.1092 130° Southeast 438 504 23,900 -2,160 Descending Los Angeles Center
Sun 04:02:57 PM 34.5981 -117.9947 124° Southeast 412 474 21,700 -1,920 Descending Los Angeles Center
Sun 04:03:59 PM 34.5447 -117.8772 119° Southeast 401 461 19,900 -2,032 Descending Los Angeles Center
Sun 04:05:01 PM 34.4922 -117.7619 119° Southeast 394 453 17,500 -2,468 Descending Los Angeles Center
Sun 04:06:03 PM 34.4292 -117.6272 120° Southeast 388 447 14,800 -1,694 Descending Los Angeles Center
Sun 04:07:05 PM 34.3844 -117.5264 118° Southeast 355 409 14,000 -1,103 Descending Los Angeles Center
Sun 04:08:19 PM 34.3333 -117.4161 119° Southeast 322 371 12,300 -1,971 Descending Los Angeles Center
Sun 04:09:22 PM 34.2675 -117.3250 131° Southeast 300 345 9,500 -2,160 Descending Los Angeles Center
Sun 04:10:24 PM 34.1914 -117.2964 163° South 278 320 7,800 -1,645 Descending Los Angeles Center
Sun 04:11:26 PM 34.1167 -117.2869 174° South 268 308 6,100 -1,452 Descending Los Angeles Center
Sun 04:12:28 PM 34.0678 -117.3506 227° Southwest 269 310 4,800 -1,053 Descending Los Angeles Center
Sun 04:13:20 PM 34.0500 -117.4167 252° West 213 245 4,100 -1,221 Descending Southern California TRACON
Sun 04:14:21 PM 34.0500 -117.4833 270° West 192 221 2,500 -1,190 Descending Southern California TRACON
Sun 04:15:26 PM 34.0500 -117.5500 270° West 135 155 1,600 -831 Descending Southern California TRACON
Sun 04:18:00 PM 34.0500 -117.6000 270° West  Level FlightAware Approximate
Sun 04:25:00 PM 34.0560 -117.6012 270° West  Level Estimated

Login

Don't have an account? Register now (free) for customized features, flight alerts, and more!